sensor_id;sensor_type;location;lat;lon;timestamp;pressure;altitude;pressure_sealevel;temperature;humidity
58088;BME280;43884;49.152;8.302;2023-12-29T00:02:21;100408.03;;;11.43;83.79
58088;BME280;43884;49.152;8.302;2023-12-29T00:04:47;100410.47;;;11.31;84.05
58088;BME280;43884;49.152;8.302;2023-12-29T00:07:13;100415.13;;;11.37;84.33
58088;BME280;43884;49.152;8.302;2023-12-29T00:09:42;100408.63;;;11.38;84.07
58088;BME280;43884;49.152;8.302;2023-12-29T00:12:08;100409.25;;;11.40;84.15
58088;BME280;43884;49.152;8.302;2023-12-29T00:14:41;100414.69;;;11.34;84.06
58088;BME280;43884;49.152;8.302;2023-12-29T00:17:07;100417.34;;;11.27;83.91
58088;BME280;43884;49.152;8.302;2023-12-29T00:19:34;100415.63;;;11.54;84.10
58088;BME280;43884;49.152;8.302;2023-12-29T00:22:00;100407.88;;;11.51;84.00
58088;BME280;43884;49.152;8.302;2023-12-29T00:24:27;100410.75;;;11.43;84.23
58088;BME280;43884;49.152;8.302;2023-12-29T00:26:53;100412.22;;;11.46;84.12
58088;BME280;43884;49.152;8.302;2023-12-29T00:29:19;100412.19;;;11.39;84.37
58088;BME280;43884;49.152;8.302;2023-12-29T00:31:46;100408.03;;;11.43;84.76
58088;BME280;43884;49.152;8.302;2023-12-29T00:34:12;100410.94;;;11.13;85.34
58088;BME280;43884;49.152;8.302;2023-12-29T00:36:39;100408.94;;;11.22;84.87
58088;BME280;43884;49.152;8.302;2023-12-29T00:39:05;100407.16;;;11.07;85.66
58088;BME280;43884;49.152;8.302;2023-12-29T00:41:32;100419.03;;;11.28;85.78
58088;BME280;43884;49.152;8.302;2023-12-29T00:43:58;100415.00;;;11.24;85.69
58088;BME280;43884;49.152;8.302;2023-12-29T00:46:25;100404.38;;;11.29;85.91
58088;BME280;43884;49.152;8.302;2023-12-29T00:48:51;100394.34;;;11.29;85.19
58088;BME280;43884;49.152;8.302;2023-12-29T00:51:18;100381.31;;;11.25;85.33
58088;BME280;43884;49.152;8.302;2023-12-29T00:53:44;100386.25;;;10.86;85.73
58088;BME280;43884;49.152;8.302;2023-12-29T00:56:11;100387.34;;;10.92;86.15
58088;BME280;43884;49.152;8.302;2023-12-29T00:58:38;100385.13;;;11.02;86.30
58088;BME280;43884;49.152;8.302;2023-12-29T01:01:06;100384.00;;;11.18;85.59
58088;BME280;43884;49.152;8.302;2023-12-29T01:03:33;100384.78;;;11.12;85.62
58088;BME280;43884;49.152;8.302;2023-12-29T01:05:59;100400.59;;;11.01;86.08
58088;BME280;43884;49.152;8.302;2023-12-29T01:08:26;100404.09;;;11.17;86.25
58088;BME280;43884;49.152;8.302;2023-12-29T01:10:53;100411.38;;;11.10;86.02
58088;BME280;43884;49.152;8.302;2023-12-29T01:13:19;100401.00;;;11.27;85.39
58088;BME280;43884;49.152;8.302;2023-12-29T01:15:45;100391.72;;;11.14;85.64
58088;BME280;43884;49.152;8.302;2023-12-29T01:18:12;100394.41;;;11.43;85.00
58088;BME280;43884;49.152;8.302;2023-12-29T01:20:39;100390.88;;;11.42;84.90
58088;BME280;43884;49.152;8.302;2023-12-29T01:23:05;100390.13;;;11.27;85.03
58088;BME280;43884;49.152;8.302;2023-12-29T01:25:32;100386.59;;;11.33;84.98
58088;BME280;43884;49.152;8.302;2023-12-29T01:27:59;100374.53;;;11.42;85.04
58088;BME280;43884;49.152;8.302;2023-12-29T01:30:25;100381.28;;;11.18;85.20
58088;BME280;43884;49.152;8.302;2023-12-29T01:32:52;100374.91;;;11.39;84.68
58088;BME280;43884;49.152;8.302;2023-12-29T01:35:18;100378.50;;;11.40;84.45
58088;BME280;43884;49.152;8.302;2023-12-29T01:37:45;100376.13;;;11.30;84.29
58088;BME280;43884;49.152;8.302;2023-12-29T01:40:12;100375.19;;;11.16;84.53
58088;BME280;43884;49.152;8.302;2023-12-29T01:42:38;100371.69;;;11.29;84.16
58088;BME280;43884;49.152;8.302;2023-12-29T01:45:09;100367.28;;;11.21;83.82
58088;BME280;43884;49.152;8.302;2023-12-29T01:47:40;100369.50;;;11.11;83.72
58088;BME280;43884;49.152;8.302;2023-12-29T01:50:07;100370.44;;;10.96;84.47
58088;BME280;43884;49.152;8.302;2023-12-29T01:52:33;100369.16;;;11.21;84.39
58088;BME280;43884;49.152;8.302;2023-12-29T01:55:00;100355.13;;;11.24;84.06
58088;BME280;43884;49.152;8.302;2023-12-29T01:57:26;100361.03;;;11.27;84.40
58088;BME280;43884;49.152;8.302;2023-12-29T01:59:53;100353.72;;;10.99;83.91
58088;BME280;43884;49.152;8.302;2023-12-29T02:02:19;100356.59;;;11.20;83.83
58088;BME280;43884;49.152;8.302;2023-12-29T02:04:46;100361.09;;;11.06;83.45
58088;BME280;43884;49.152;8.302;2023-12-29T02:07:12;100344.59;;;11.14;83.58
58088;BME280;43884;49.152;8.302;2023-12-29T02:09:39;100339.84;;;11.23;83.35
58088;BME280;43884;49.152;8.302;2023-12-29T02:12:05;100336.94;;;11.24;83.26
58088;BME280;43884;49.152;8.302;2023-12-29T02:14:32;100329.56;;;11.18;83.11
58088;BME280;43884;49.152;8.302;2023-12-29T02:17:21;100327.19;;;11.08;83.29
58088;BME280;43884;49.152;8.302;2023-12-29T02:19:49;100324.06;;;11.47;82.51
58088;BME280;43884;49.152;8.302;2023-12-29T02:22:16;100320.66;;;11.02;83.09
58088;BME280;43884;49.152;8.302;2023-12-29T02:24:49;100311.00;;;11.35;82.79
58088;BME280;43884;49.152;8.302;2023-12-29T02:30:22;100307.72;;;11.05;83.11
58088;BME280;43884;49.152;8.302;2023-12-29T02:32:53;100313.75;;;11.35;83.12
58088;BME280;43884;49.152;8.302;2023-12-29T02:35:23;100308.97;;;11.37;82.62
58088;BME280;43884;49.152;8.302;2023-12-29T02:37:52;100310.81;;;11.37;82.59
58088;BME280;43884;49.152;8.302;2023-12-29T02:40:18;100308.81;;;11.52;82.09
58088;BME280;43884;49.152;8.302;2023-12-29T02:42:48;100315.78;;;11.26;82.39
58088;BME280;43884;49.152;8.302;2023-12-29T02:45:15;100307.91;;;11.38;82.44
58088;BME280;43884;49.152;8.302;2023-12-29T02:47:42;100302.47;;;11.38;82.60
58088;BME280;43884;49.152;8.302;2023-12-29T02:50:09;100302.97;;;11.20;82.39
58088;BME280;43884;49.152;8.302;2023-12-29T02:52:35;100307.31;;;11.08;82.46
58088;BME280;43884;49.152;8.302;2023-12-29T02:55:02;100303.91;;;11.34;82.36
58088;BME280;43884;49.152;8.302;2023-12-29T02:57:29;100308.41;;;11.13;82.81
58088;BME280;43884;49.152;8.302;2023-12-29T02:59:55;100300.94;;;11.29;82.50
58088;BME280;43884;49.152;8.302;2023-12-29T03:02:22;100305.94;;;11.25;81.91
58088;BME280;43884;49.152;8.302;2023-12-29T03:04:49;100306.00;;;11.32;82.21
58088;BME280;43884;49.152;8.302;2023-12-29T03:07:15;100305.94;;;11.19;82.98
58088;BME280;43884;49.152;8.302;2023-12-29T03:09:42;100306.22;;;11.37;82.24
58088;BME280;43884;49.152;8.302;2023-12-29T03:12:08;100311.56;;;11.17;82.90
58088;BME280;43884;49.152;8.302;2023-12-29T03:14:35;100314.25;;;11.52;82.20
58088;BME280;43884;49.152;8.302;2023-12-29T03:17:01;100310.63;;;11.38;82.86
58088;BME280;43884;49.152;8.302;2023-12-29T03:19:27;100308.53;;;11.40;82.84
58088;BME280;43884;49.152;8.302;2023-12-29T03:21:54;100318.88;;;11.16;83.30
58088;BME280;43884;49.152;8.302;2023-12-29T03:24:21;100320.41;;;11.26;83.15
58088;BME280;43884;49.152;8.302;2023-12-29T03:26:47;100310.31;;;10.84;84.13
58088;BME280;43884;49.152;8.302;2023-12-29T03:29:14;100312.31;;;11.04;84.72
58088;BME280;43884;49.152;8.302;2023-12-29T03:31:40;100308.53;;;11.05;84.41
58088;BME280;43884;49.152;8.302;2023-12-29T03:34:06;100306.63;;;10.99;84.08
58088;BME280;43884;49.152;8.302;2023-12-29T03:36:33;100317.06;;;10.23;85.79
58088;BME280;43884;49.152;8.302;2023-12-29T03:38:59;100329.53;;;10.17;87.33
58088;BME280;43884;49.152;8.302;2023-12-29T03:41:27;100326.66;;;10.41;88.65
58088;BME280;43884;49.152;8.302;2023-12-29T03:43:53;100311.63;;;10.01;88.24
58088;BME280;43884;49.152;8.302;2023-12-29T03:46:20;100314.38;;;9.86;88.46
58088;BME280;43884;49.152;8.302;2023-12-29T03:48:47;100326.31;;;10.07;88.85
58088;BME280;43884;49.152;8.302;2023-12-29T03:51:15;100321.06;;;10.27;88.91
58088;BME280;43884;49.152;8.302;2023-12-29T03:53:42;100312.97;;;10.77;89.65
58088;BME280;43884;49.152;8.302;2023-12-29T03:56:12;100320.88;;;10.29;88.96
58088;BME280;43884;49.152;8.302;2023-12-29T03:58:40;100316.50;;;10.49;89.46
58088;BME280;43884;49.152;8.302;2023-12-29T04:01:10;100317.19;;;10.36;88.96
58088;BME280;43884;49.152;8.302;2023-12-29T04:03:38;100315.00;;;10.25;89.75
58088;BME280;43884;49.152;8.302;2023-12-29T04:06:05;100319.78;;;10.45;89.30
58088;BME280;43884;49.152;8.302;2023-12-29T04:08:36;100317.47;;;10.63;89.56
58088;BME280;43884;49.152;8.302;2023-12-29T04:11:02;100313.88;;;10.41;89.85
58088;BME280;43884;49.152;8.302;2023-12-29T04:13:29;100319.06;;;10.36;90.18
58088;BME280;43884;49.152;8.302;2023-12-29T04:15:55;100321.41;;;10.39;90.67
58088;BME280;43884;49.152;8.302;2023-12-29T04:18:22;100312.38;;;10.39;90.66
58088;BME280;43884;49.152;8.302;2023-12-29T04:20:49;100315.75;;;10.62;90.89
58088;BME280;43884;49.152;8.302;2023-12-29T04:23:15;100301.44;;;10.47;90.21
58088;BME280;43884;49.152;8.302;2023-12-29T04:25:42;100315.41;;;10.72;90.42
58088;BME280;43884;49.152;8.302;2023-12-29T04:28:08;100323.06;;;10.40;91.11
58088;BME280;43884;49.152;8.302;2023-12-29T04:30:35;100321.00;;;10.93;90.86
58088;BME280;43884;49.152;8.302;2023-12-29T04:33:01;100323.19;;;10.75;90.28
58088;BME280;43884;49.152;8.302;2023-12-29T04:35:29;100321.69;;;10.95;90.02
58088;BME280;43884;49.152;8.302;2023-12-29T04:37:56;100321.81;;;11.15;89.34
58088;BME280;43884;49.152;8.302;2023-12-29T04:40:22;100322.72;;;11.29;88.32
58088;BME280;43884;49.152;8.302;2023-12-29T04:42:48;100313.84;;;11.13;88.87
58088;BME280;43884;49.152;8.302;2023-12-29T04:45:15;100326.28;;;11.29;88.80
58088;BME280;43884;49.152;8.302;2023-12-29T04:47:41;100314.47;;;11.15;89.74
58088;BME280;43884;49.152;8.302;2023-12-29T04:50:08;100321.34;;;11.11;89.87
58088;BME280;43884;49.152;8.302;2023-12-29T04:52:34;100317.50;;;10.99;90.16
58088;BME280;43884;49.152;8.302;2023-12-29T04:55:00;100317.34;;;10.79;91.06
58088;BME280;43884;49.152;8.302;2023-12-29T04:57:27;100318.91;;;10.88;90.84
58088;BME280;43884;49.152;8.302;2023-12-29T04:59:53;100321.72;;;10.73;91.42
58088;BME280;43884;49.152;8.302;2023-12-29T05:02:20;100336.72;;;10.69;91.98
58088;BME280;43884;49.152;8.302;2023-12-29T05:04:46;100323.03;;;10.55;92.35
58088;BME280;43884;49.152;8.302;2023-12-29T05:07:12;100326.28;;;10.94;91.74
58088;BME280;43884;49.152;8.302;2023-12-29T05:09:39;100321.00;;;10.93;91.13
58088;BME280;43884;49.152;8.302;2023-12-29T05:12:05;100331.53;;;10.96;90.89
58088;BME280;43884;49.152;8.302;2023-12-29T05:14:32;100315.75;;;10.84;91.05
58088;BME280;43884;49.152;8.302;2023-12-29T05:16:58;100323.19;;;10.75;90.84
58088;BME280;43884;49.152;8.302;2023-12-29T05:19:24;100323.66;;;10.79;90.94
58088;BME280;43884;49.152;8.302;2023-12-29T05:21:51;100324.31;;;10.16;92.45
58088;BME280;43884;49.152;8.302;2023-12-29T05:24:17;100307.13;;;10.52;92.81
58088;BME280;43884;49.152;8.302;2023-12-29T05:26:44;100311.72;;;10.52;92.00
58088;BME280;43884;49.152;8.302;2023-12-29T05:29:10;100298.22;;;10.65;91.79
58088;BME280;43884;49.152;8.302;2023-12-29T05:31:36;100291.81;;;10.73;91.51
58088;BME280;43884;49.152;8.302;2023-12-29T05:34:03;100303.72;;;10.43;91.32
58088;BME280;43884;49.152;8.302;2023-12-29T05:36:29;100301.78;;;10.66;91.27
58088;BME280;43884;49.152;8.302;2023-12-29T05:38:56;100301.00;;;10.43;91.74
58088;BME280;43884;49.152;8.302;2023-12-29T05:41:22;100299.78;;;10.53;91.59
58088;BME280;43884;49.152;8.302;2023-12-29T05:43:48;100305.41;;;10.51;91.30
58088;BME280;43884;49.152;8.302;2023-12-29T05:46:15;100301.16;;;10.42;91.77
58088;BME280;43884;49.152;8.302;2023-12-29T05:48:41;100306.03;;;10.46;91.60
58088;BME280;43884;49.152;8.302;2023-12-29T05:51:08;100303.75;;;10.50;91.31
58088;BME280;43884;49.152;8.302;2023-12-29T05:53:35;100314.16;;;10.46;92.02
58088;BME280;43884;49.152;8.302;2023-12-29T05:56:01;100312.94;;;10.49;91.29
58088;BME280;43884;49.152;8.302;2023-12-29T05:58:28;100322.09;;;10.04;92.33
58088;BME280;43884;49.152;8.302;2023-12-29T06:00:54;100320.25;;;10.27;92.78
58088;BME280;43884;49.152;8.302;2023-12-29T06:03:21;100313.88;;;10.41;92.30
58088;BME280;43884;49.152;8.302;2023-12-29T06:05:48;100318.41;;;10.34;91.86
58088;BME280;43884;49.152;8.302;2023-12-29T06:08:14;100315.25;;;10.30;91.47
58088;BME280;43884;49.152;8.302;2023-12-29T06:10:41;100322.94;;;10.05;92.37
58088;BME280;43884;49.152;8.302;2023-12-29T06:13:07;100320.16;;;10.20;92.56
58088;BME280;43884;49.152;8.302;2023-12-29T06:15:33;100320.66;;;10.08;92.09
58088;BME280;43884;49.152;8.302;2023-12-29T06:18:00;100318.72;;;10.02;92.39
58088;BME280;43884;49.152;8.302;2023-12-29T06:20:26;100319.72;;;9.94;92.21
58088;BME280;43884;49.152;8.302;2023-12-29T06:22:53;100320.28;;;10.12;92.17
58088;BME280;43884;49.152;8.302;2023-12-29T06:25:19;100321.72;;;10.07;92.29
58088;BME280;43884;49.152;8.302;2023-12-29T06:27:46;100335.88;;;10.03;92.77
58088;BME280;43884;49.152;8.302;2023-12-29T06:30:12;100326.81;;;9.95;92.27
58088;BME280;43884;49.152;8.302;2023-12-29T06:32:39;100325.97;;;9.95;92.03
58088;BME280;43884;49.152;8.302;2023-12-29T06:35:05;100318.41;;;10.12;91.35
58088;BME280;43884;49.152;8.302;2023-12-29T06:37:32;100309.56;;;10.25;91.19
58088;BME280;43884;49.152;8.302;2023-12-29T06:39:58;100310.38;;;10.04;91.50
58088;BME280;43884;49.152;8.302;2023-12-29T06:42:25;100312.41;;;10.17;91.31
58088;BME280;43884;49.152;8.302;2023-12-29T06:44:51;100309.13;;;9.85;91.75
58088;BME280;43884;49.152;8.302;2023-12-29T06:47:17;100312.19;;;9.96;92.27
58088;BME280;43884;49.152;8.302;2023-12-29T06:49:44;100298.81;;;10.17;91.74
58088;BME280;43884;49.152;8.302;2023-12-29T06:52:10;100296.69;;;10.34;90.47
58088;BME280;43884;49.152;8.302;2023-12-29T06:54:37;100291.06;;;10.14;90.47
58088;BME280;43884;49.152;8.302;2023-12-29T06:57:04;100302.75;;;9.92;91.04
58088;BME280;43884;49.152;8.302;2023-12-29T06:59:30;100305.47;;;9.92;91.22
58088;BME280;43884;49.152;8.302;2023-12-29T07:01:57;100309.63;;;9.88;91.41
58088;BME280;43884;49.152;8.302;2023-12-29T07:04:23;100310.66;;;10.09;91.70
58088;BME280;43884;49.152;8.302;2023-12-29T07:06:50;100305.59;;;10.06;90.71
58088;BME280;43884;49.152;8.302;2023-12-29T07:09:16;100312.25;;;9.81;91.48
58088;BME280;43884;49.152;8.302;2023-12-29T07:11:47;100295.31;;;10.01;91.69
58088;BME280;43884;49.152;8.302;2023-12-29T07:14:13;100294.53;;;9.86;91.32
58088;BME280;43884;49.152;8.302;2023-12-29T07:16:39;100299.50;;;9.82;91.28
58088;BME280;43884;49.152;8.302;2023-12-29T07:19:09;100295.81;;;9.90;91.04
58088;BME280;43884;49.152;8.302;2023-12-29T07:21:35;100309.88;;;9.78;91.86
58088;BME280;43884;49.152;8.302;2023-12-29T07:24:02;100302.59;;;10.16;90.71
58088;BME280;43884;49.152;8.302;2023-12-29T07:26:28;100308.53;;;10.04;90.42
58088;BME280;43884;49.152;8.302;2023-12-29T07:28:54;100308.31;;;10.06;90.83
58088;BME280;43884;49.152;8.302;2023-12-29T07:31:21;100316.50;;;9.91;91.03
58088;BME280;43884;49.152;8.302;2023-12-29T07:33:47;100311.75;;;10.15;90.06
58088;BME280;43884;49.152;8.302;2023-12-29T07:36:14;100311.25;;;10.04;89.74
58088;BME280;43884;49.152;8.302;2023-12-29T07:38:41;100312.97;;;9.90;90.34
58088;BME280;43884;49.152;8.302;2023-12-29T07:41:08;100304.09;;;9.81;90.38
58088;BME280;43884;49.152;8.302;2023-12-29T07:43:34;100313.38;;;9.72;90.79
58088;BME280;43884;49.152;8.302;2023-12-29T07:46:01;100317.50;;;9.83;91.60
58088;BME280;43884;49.152;8.302;2023-12-29T07:48:27;100323.22;;;9.73;91.28
58088;BME280;43884;49.152;8.302;2023-12-29T07:50:54;100319.56;;;9.66;91.64
58088;BME280;43884;49.152;8.302;2023-12-29T07:53:30;100317.31;;;10.06;91.51
58088;BME280;43884;49.152;8.302;2023-12-29T07:56:21;100317.50;;;9.83;91.44
58088;BME280;43884;49.152;8.302;2023-12-29T07:58:48;100307.03;;;10.02;91.25
58088;BME280;43884;49.152;8.302;2023-12-29T08:01:15;100308.06;;;10.01;90.85
58088;BME280;43884;49.152;8.302;2023-12-29T08:03:42;100311.59;;;9.79;91.12
58088;BME280;43884;49.152;8.302;2023-12-29T08:06:08;100310.78;;;10.01;90.80
58088;BME280;43884;49.152;8.302;2023-12-29T08:08:34;100316.41;;;9.99;91.22
58088;BME280;43884;49.152;8.302;2023-12-29T08:11:01;100319.63;;;9.88;91.96
58088;BME280;43884;49.152;8.302;2023-12-29T08:13:27;100317.72;;;10.03;91.40
58088;BME280;43884;49.152;8.302;2023-12-29T08:15:53;100317.94;;;10.08;91.87
58088;BME280;43884;49.152;8.302;2023-12-29T08:18:20;100310.72;;;10.16;91.58
58088;BME280;43884;49.152;8.302;2023-12-29T08:20:46;100318.47;;;10.19;91.70
58088;BME280;43884;49.152;8.302;2023-12-29T08:23:13;100311.75;;;10.15;91.95
58088;BME280;43884;49.152;8.302;2023-12-29T08:25:39;100321.47;;;10.24;92.01
58088;BME280;43884;49.152;8.302;2023-12-29T08:28:05;100319.84;;;10.30;91.57
58088;BME280;43884;49.152;8.302;2023-12-29T08:30:34;100318.78;;;10.46;91.66
58088;BME280;43884;49.152;8.302;2023-12-29T08:33:01;100320.84;;;10.44;91.26
58088;BME280;43884;49.152;8.302;2023-12-29T08:35:27;100323.66;;;10.57;91.47
58088;BME280;43884;49.152;8.302;2023-12-29T08:37:53;100325.66;;;10.27;91.13
58088;BME280;43884;49.152;8.302;2023-12-29T08:40:20;100327.69;;;10.90;90.15
58088;BME280;43884;49.152;8.302;2023-12-29T08:42:46;100327.41;;;10.78;89.95
58088;BME280;43884;49.152;8.302;2023-12-29T08:45:12;100335.28;;;10.95;90.30
58088;BME280;43884;49.152;8.302;2023-12-29T08:47:39;100331.44;;;10.82;89.84
58088;BME280;43884;49.152;8.302;2023-12-29T08:50:05;100327.84;;;11.10;89.07
58088;BME280;43884;49.152;8.302;2023-12-29T08:52:32;100324.41;;;11.30;88.64
58088;BME280;43884;49.152;8.302;2023-12-29T08:55:01;100344.97;;;11.39;87.78
58088;BME280;43884;49.152;8.302;2023-12-29T08:57:28;100334.88;;;10.98;88.43
58088;BME280;43884;49.152;8.302;2023-12-29T08:59:54;100336.88;;;11.17;87.84
58088;BME280;43884;49.152;8.302;2023-12-29T09:02:21;100331.66;;;11.16;87.62
58088;BME280;43884;49.152;8.302;2023-12-29T09:04:47;100340.63;;;11.10;88.15
58088;BME280;43884;49.152;8.302;2023-12-29T09:07:13;100327.91;;;11.24;87.80
58088;BME280;43884;49.152;8.302;2023-12-29T09:09:40;100335.22;;;11.59;87.38
58088;BME280;43884;49.152;8.302;2023-12-29T09:12:06;100338.41;;;11.27;87.02
58088;BME280;43884;49.152;8.302;2023-12-29T09:14:33;100348.63;;;11.60;86.45
58088;BME280;43884;49.152;8.302;2023-12-29T09:17:00;100341.34;;;11.67;85.90
58088;BME280;43884;49.152;8.302;2023-12-29T09:19:26;100335.38;;;11.08;86.55
58088;BME280;43884;49.152;8.302;2023-12-29T09:21:53;100340.41;;;11.11;87.11
58088;BME280;43884;49.152;8.302;2023-12-29T09:24:19;100338.72;;;11.94;85.96
58088;BME280;43884;49.152;8.302;2023-12-29T09:26:45;100333.91;;;11.96;84.13
58088;BME280;43884;49.152;8.302;2023-12-29T09:29:12;100341.09;;;12.11;83.59
58088;BME280;43884;49.152;8.302;2023-12-29T09:31:38;100338.19;;;12.19;83.34
58088;BME280;43884;49.152;8.302;2023-12-29T09:34:05;100334.50;;;11.92;82.92
58088;BME280;43884;49.152;8.302;2023-12-29T09:36:31;100328.78;;;12.29;82.77
58088;BME280;43884;49.152;8.302;2023-12-29T09:38:58;100328.34;;;12.32;82.04
58088;BME280;43884;49.152;8.302;2023-12-29T09:41:24;100335.06;;;12.36;81.70
58088;BME280;43884;49.152;8.302;2023-12-29T09:43:52;100334.66;;;12.59;81.43
58088;BME280;43884;49.152;8.302;2023-12-29T09:46:19;100334.25;;;12.56;81.10
58088;BME280;43884;49.152;8.302;2023-12-29T09:48:47;100336.16;;;12.75;80.17
58088;BME280;43884;49.152;8.302;2023-12-29T09:51:14;100338.41;;;12.38;81.38
58088;BME280;43884;49.152;8.302;2023-12-29T09:53:41;100338.03;;;12.41;81.28
58088;BME280;43884;49.152;8.302;2023-12-29T09:56:08;100333.38;;;12.42;81.29
58088;BME280;43884;49.152;8.302;2023-12-29T09:58:35;100324.75;;;12.11;81.39
58088;BME280;43884;49.152;8.302;2023-12-29T10:01:01;100326.28;;;12.68;80.98
58088;BME280;43884;49.152;8.302;2023-12-29T10:03:29;100314.69;;;13.13;80.02
58088;BME280;43884;49.152;8.302;2023-12-29T10:05:56;100318.84;;;13.36;78.68
58088;BME280;43884;49.152;8.302;2023-12-29T10:08:24;100317.91;;;12.69;78.67
58088;BME280;43884;49.152;8.302;2023-12-29T10:10:52;100318.72;;;12.83;79.57
58088;BME280;43884;49.152;8.302;2023-12-29T10:13:19;100296.53;;;13.59;77.42
58088;BME280;43884;49.152;8.302;2023-12-29T10:15:50;100296.91;;;13.63;76.92
58088;BME280;43884;49.152;8.302;2023-12-29T10:20:55;100299.75;;;13.22;77.55
58088;BME280;43884;49.152;8.302;2023-12-29T10:23:32;100300.84;;;13.01;78.07
58088;BME280;43884;49.152;8.302;2023-12-29T10:26:02;100291.28;;;13.44;77.39
58088;BME280;43884;49.152;8.302;2023-12-29T10:28:29;100279.97;;;13.40;76.02
58088;BME280;43884;49.152;8.302;2023-12-29T10:30:55;100265.41;;;13.60;75.77
58088;BME280;43884;49.152;8.302;2023-12-29T10:33:22;100277.44;;;13.91;74.47
58088;BME280;43884;49.152;8.302;2023-12-29T10:36:01;100256.78;;;13.63;74.94
58088;BME280;43884;49.152;8.302;2023-12-29T10:38:29;100269.91;;;13.27;75.28
58088;BME280;43884;49.152;8.302;2023-12-29T10:41:09;100260.84;;;13.47;74.79
58088;BME280;43884;49.152;8.302;2023-12-29T10:43:36;100254.59;;;13.26;75.03
58088;BME280;43884;49.152;8.302;2023-12-29T10:46:06;100258.84;;;13.15;75.22
58088;BME280;43884;49.152;8.302;2023-12-29T10:48:33;100253.06;;;13.37;74.61
58088;BME280;43884;49.152;8.302;2023-12-29T10:50:59;100252.22;;;13.50;73.81
58088;BME280;43884;49.152;8.302;2023-12-29T10:53:25;100256.66;;;13.38;74.11
58088;BME280;43884;49.152;8.302;2023-12-29T10:55:52;100245.81;;;13.17;74.04
58088;BME280;43884;49.152;8.302;2023-12-29T10:58:19;100243.28;;;13.23;73.88
58088;BME280;43884;49.152;8.302;2023-12-29T11:00:45;100250.41;;;13.17;74.50
58088;BME280;43884;49.152;8.302;2023-12-29T11:03:15;100248.13;;;13.14;74.16
58088;BME280;43884;49.152;8.302;2023-12-29T11:05:41;100236.22;;;13.54;73.63
58088;BME280;43884;49.152;8.302;2023-12-29T11:08:15;100234.34;;;13.54;72.50
58088;BME280;43884;49.152;8.302;2023-12-29T11:10:41;100227.53;;;14.03;72.38
58088;BME280;43884;49.152;8.302;2023-12-29T11:13:10;100227.91;;;13.81;72.17
58088;BME280;43884;49.152;8.302;2023-12-29T11:15:37;100226.66;;;13.77;72.31
58088;BME280;43884;49.152;8.302;2023-12-29T11:18:09;100223.66;;;13.85;71.67
58088;BME280;43884;49.152;8.302;2023-12-29T11:20:37;100233.38;;;13.81;71.49
58088;BME280;43884;49.152;8.302;2023-12-29T11:23:06;100227.75;;;13.69;70.72
58088;BME280;43884;49.152;8.302;2023-12-29T11:25:33;100236.81;;;13.63;71.46
58088;BME280;43884;49.152;8.302;2023-12-29T11:28:00;100251.13;;;13.97;71.22
58088;BME280;43884;49.152;8.302;2023-12-29T11:30:26;100231.09;;;13.71;70.90
58088;BME280;43884;49.152;8.302;2023-12-29T11:32:55;100229.69;;;13.94;71.91
58088;BME280;43884;49.152;8.302;2023-12-29T11:35:32;100240.13;;;13.71;71.54
58088;BME280;43884;49.152;8.302;2023-12-29T11:43:31;100239.34;;;13.12;72.80
58088;BME280;43884;49.152;8.302;2023-12-29T11:45:58;100238.38;;;13.38;73.03
58088;BME280;43884;49.152;8.302;2023-12-29T11:48:52;100238.94;;;13.61;72.79
58088;BME280;43884;49.152;8.302;2023-12-29T11:51:27;100228.50;;;13.51;72.03
58088;BME280;43884;49.152;8.302;2023-12-29T11:53:53;100217.16;;;14.11;71.21
58088;BME280;43884;49.152;8.302;2023-12-29T11:56:20;100209.88;;;13.73;70.69
58088;BME280;43884;49.152;8.302;2023-12-29T11:58:46;100210.00;;;14.17;70.20
58088;BME280;43884;49.152;8.302;2023-12-29T12:01:12;100203.72;;;13.39;70.34
58088;BME280;43884;49.152;8.302;2023-12-29T12:03:39;100195.84;;;13.63;69.37
58088;BME280;43884;49.152;8.302;2023-12-29T12:06:05;100205.81;;;14.15;68.45
58088;BME280;43884;49.152;8.302;2023-12-29T12:08:32;100194.19;;;14.19;68.35
58088;BME280;43884;49.152;8.302;2023-12-29T12:13:44;100178.25;;;14.35;67.70
58088;BME280;43884;49.152;8.302;2023-12-29T12:18:57;100175.31;;;14.11;67.66
58088;BME280;43884;49.152;8.302;2023-12-29T12:21:24;100191.38;;;13.68;68.13
58088;BME280;43884;49.152;8.302;2023-12-29T12:23:51;100186.13;;;13.99;67.94
58088;BME280;43884;49.152;8.302;2023-12-29T12:26:19;100188.75;;;13.55;68.09
58088;BME280;43884;49.152;8.302;2023-12-29T12:28:47;100184.19;;;13.81;68.29
58088;BME280;43884;49.152;8.302;2023-12-29T12:31:17;100189.69;;;13.74;68.07
58088;BME280;43884;49.152;8.302;2023-12-29T12:33:52;100188.63;;;13.75;67.45
58088;BME280;43884;49.152;8.302;2023-12-29T12:36:19;100183.63;;;13.97;67.42
58088;BME280;43884;49.152;8.302;2023-12-29T12:38:57;100189.53;;;14.20;67.77
58088;BME280;43884;49.152;8.302;2023-12-29T12:41:25;100180.88;;;13.72;67.46
58088;BME280;43884;49.152;8.302;2023-12-29T12:46:22;100183.47;;;13.60;68.14
58088;BME280;43884;49.152;8.302;2023-12-29T12:48:49;100198.47;;;13.37;67.70
58088;BME280;43884;49.152;8.302;2023-12-29T12:51:15;100206.72;;;13.24;67.75
58088;BME280;43884;49.152;8.302;2023-12-29T12:53:42;100199.31;;;13.38;67.68
58088;BME280;43884;49.152;8.302;2023-12-29T12:56:08;100186.66;;;13.57;67.04
58088;BME280;43884;49.152;8.302;2023-12-29T12:58:45;100179.69;;;13.15;67.54
58088;BME280;43884;49.152;8.302;2023-12-29T13:01:17;100185.22;;;13.41;67.46
58088;BME280;43884;49.152;8.302;2023-12-29T13:03:48;100194.34;;;13.21;67.25
58088;BME280;43884;49.152;8.302;2023-12-29T13:06:23;100185.78;;;13.56;66.64
58088;BME280;43884;49.152;8.302;2023-12-29T13:08:53;100180.38;;;13.50;66.89
58088;BME280;43884;49.152;8.302;2023-12-29T13:11:27;100183.50;;;13.53;67.06